Time;durP1;ratioP1;P1;durP2;ratioP2;P2;SDS_P1;SDS_P2;PMS_P1;PMS_P2;Temp;Humidity;BMP_temperature;BMP_pressure;BME280_temperature;BME280_humidity;BME280_pressure;Samples;Min_cycle;Max_cycle;Signal;HPM_P1;HPM_P2
2022/04/02 00:00:28;;;;;;;16.37;14.77;;;6.30;99.90;;;;;;6227944;28;20483;-65
2022/04/02 00:03:31;;;;;;;15.17;13.57;;;6.30;99.90;;;;;;6228095;28;20935;-65
2022/04/02 00:06:35;;;;;;;15.13;13.63;;;6.40;99.90;;;;;;6227852;28;20826;-66
2022/04/02 00:09:40;;;;;;;16.17;14.50;;;6.40;99.90;;;;;;6227858;28;20479;-66
2022/04/02 00:12:43;;;;;;;16.40;13.37;;;6.40;99.90;;;;;;6228321;28;20484;-65
2022/04/02 00:15:46;;;;;;;15.93;14.43;;;6.40;99.90;;;;;;6227876;28;20468;-66
2022/04/02 00:18:50;;;;;;;15.07;13.67;;;6.50;99.90;;;;;;6227596;28;20486;-65
2022/04/02 00:21:53;;;;;;;14.77;13.33;;;6.50;99.90;;;;;;6227217;28;20483;-65
2022/04/02 00:24:57;;;;;;;14.00;12.60;;;6.50;99.90;;;;;;6227515;28;20480;-65
2022/04/02 00:28:00;;;;;;;14.67;13.00;;;6.60;99.90;;;;;;6227191;28;20472;-66
2022/04/02 00:31:05;;;;;;;13.83;12.53;;;6.50;99.90;;;;;;6227197;28;20476;-65
2022/04/02 00:34:08;;;;;;;14.73;13.33;;;6.50;99.90;;;;;;6226526;28;20485;-65
2022/04/02 00:37:11;;;;;;;16.50;14.90;;;6.50;99.90;;;;;;6226991;28;20472;-66
2022/04/02 00:40:16;;;;;;;15.10;13.67;;;6.50;99.90;;;;;;6230816;28;20488;-66
2022/04/02 00:43:23;;;;;;;15.57;14.13;;;6.50;99.90;;;;;;6222159;28;20506;-66
2022/04/02 00:46:27;;;;;;;15.50;13.90;;;6.40;99.90;;;;;;6230181;28;20491;-66
2022/04/02 00:49:30;;;;;;;14.50;13.20;;;6.40;99.90;;;;;;6229643;28;20479;-66
2022/04/02 00:52:33;;;;;;;14.67;13.27;;;6.40;99.90;;;;;;6247561;28;20871;-67
2022/04/02 00:55:39;;;;;;;15.50;14.07;;;6.30;99.90;;;;;;6251075;28;20489;-66
2022/04/02 00:58:42;;;;;;;15.47;13.83;;;6.20;99.90;;;;;;6251395;28;20479;-66
2022/04/02 01:01:45;;;;;;;15.23;13.83;;;6.10;99.90;;;;;;6252341;28;20844;-67
2022/04/02 01:04:49;;;;;;;16.20;14.57;;;6.10;99.90;;;;;;6250652;28;20605;-66
2022/04/02 01:07:52;;;;;;;15.03;13.47;;;6.10;99.90;;;;;;6250535;28;20470;-67
2022/04/02 01:10:58;;;;;;;15.13;13.77;;;6.10;99.90;;;;;;6226628;28;20463;-66
2022/04/02 01:14:01;;;;;;;15.00;13.50;;;6.10;99.90;;;;;;6226918;28;20467;-66
2022/04/02 01:17:05;;;;;;;14.03;12.73;;;6.10;99.90;;;;;;6226459;28;20448;-66
2022/04/02 01:20:10;;;;;;;14.23;12.83;;;6.20;99.90;;;;;;6226077;28;20490;-67
2022/04/02 01:23:15;;;;;;;16.07;14.53;;;6.20;99.90;;;;;;6225943;28;20471;-67
2022/04/02 01:26:20;;;;;;;14.83;13.33;;;6.00;99.90;;;;;;6226033;28;20812;-66
2022/04/02 01:29:23;;;;;;;14.70;13.40;;;5.90;99.90;;;;;;6225954;28;20463;-67
2022/04/02 01:32:26;;;;;;;15.90;14.37;;;5.90;99.90;;;;;;6226072;28;20514;-66
2022/04/02 01:35:29;;;;;;;15.07;13.63;;;5.80;99.90;;;;;;6225973;28;20475;-65
2022/04/02 01:38:34;;;;;;;16.27;14.67;;;5.70;99.90;;;;;;6227145;28;20483;-67
2022/04/02 01:41:37;;;;;;;15.37;13.87;;;5.70;99.90;;;;;;6229498;28;20481;-64
2022/04/02 01:44:41;;;;;;;14.53;13.13;;;5.70;99.90;;;;;;6215675;28;20979;-64
2022/04/02 01:47:44;;;;;;;14.27;12.90;;;5.70;99.90;;;;;;6224573;28;20829;-67
2022/04/02 01:50:47;;;;;;;16.30;14.60;;;5.50;99.90;;;;;;6224358;28;20475;-64
2022/04/02 01:53:52;;;;;;;15.70;14.13;;;5.60;99.90;;;;;;6224326;28;20491;-66
2022/04/02 01:56:55;;;;;;;16.70;15.07;;;5.60;99.90;;;;;;6224582;28;20479;-65
2022/04/02 01:59:58;;;;;;;15.67;14.17;;;5.70;99.90;;;;;;6234311;28;20478;-65
2022/04/02 02:03:01;;;;;;;13.87;12.47;;;5.80;99.90;;;;;;6249760;28;20482;-65
2022/04/02 02:06:06;;;;;;;14.23;12.83;;;5.80;99.90;;;;;;6249740;28;20489;-65
2022/04/02 02:09:10;;;;;;;14.03;12.63;;;5.90;99.90;;;;;;6243238;28;20474;-65
2022/04/02 02:12:15;;;;;;;13.57;12.20;;;5.90;99.90;;;;;;6255095;28;20497;-65
2022/04/02 02:15:18;;;;;;;16.40;14.73;;;5.90;99.90;;;;;;6253034;28;20475;-65
2022/04/02 02:18:21;;;;;;;15.57;13.73;;;5.90;99.90;;;;;;6252642;28;20470;-65
2022/04/02 02:21:24;;;;;;;15.30;13.80;;;5.90;99.90;;;;;;6252449;28;20470;-66
2022/04/02 02:24:29;;;;;;;16.13;14.53;;;5.90;99.90;;;;;;6252645;28;20475;-65
2022/04/02 02:27:32;;;;;;;16.00;14.30;;;5.80;99.90;;;;;;6250052;28;20475;-65
2022/04/02 02:30:35;;;;;;;14.97;13.37;;;5.80;99.90;;;;;;6225403;28;20479;-65
2022/04/02 02:36:59;;;;;;;14.77;13.30;;;5.90;99.90;;;;;;6225383;28;20476;-65
2022/04/02 02:40:04;;;;;;;15.47;13.87;;;5.90;99.90;;;;;;6225452;28;20484;-65
2022/04/02 02:43:08;;;;;;;16.63;14.93;;;5.80;99.90;;;;;;6225740;28;20480;-65
2022/04/02 02:46:14;;;;;;;15.37;13.80;;;5.80;99.90;;;;;;6228891;28;20471;-65
2022/04/02 02:49:17;;;;;;;17.87;16.00;;;5.80;99.90;;;;;;6225322;28;20479;-65
2022/04/02 02:52:20;;;;;;;18.10;16.20;;;5.80;99.90;;;;;;6229898;28;20495;-65
2022/04/02 02:55:25;;;;;;;17.30;15.07;;;5.80;99.90;;;;;;6230218;28;20990;-63
2022/04/02 02:58:28;;;;;;;18.20;16.27;;;5.80;99.90;;;;;;6229805;28;20936;-64
2022/04/02 03:01:32;;;;;;;18.77;16.80;;;5.70;99.90;;;;;;6229499;28;20476;-64
2022/04/02 03:04:35;;;;;;;19.00;16.50;;;5.60;99.90;;;;;;6229773;28;20614;-64
2022/04/02 03:07:38;;;;;;;19.37;17.37;;;5.60;99.90;;;;;;6229770;28;20490;-64
2022/04/02 03:10:44;;;;;;;21.00;17.87;;;5.50;99.90;;;;;;6229666;28;20961;-64
2022/04/02 03:13:47;;;;;;;19.00;16.90;;;5.50;99.90;;;;;;6229499;28;20481;-65
2022/04/02 03:16:50;;;;;;;20.77;18.63;;;5.40;99.90;;;;;;6229322;28;20478;-64
2022/04/02 03:19:54;;;;;;;19.57;17.53;;;5.50;99.90;;;;;;6229145;28;20491;-65
2022/04/02 03:22:57;;;;;;;19.50;17.43;;;5.40;99.90;;;;;;6228938;28;20475;-64
2022/04/02 03:26:02;;;;;;;19.67;17.63;;;5.40;99.90;;;;;;6232854;28;20462;-64
2022/04/02 03:29:05;;;;;;;19.87;16.97;;;5.40;99.90;;;;;;6230241;28;20446;-64
2022/04/02 03:32:09;;;;;;;20.70;17.27;;;5.50;99.90;;;;;;6229462;28;20468;-64
2022/04/02 03:35:14;;;;;;;19.67;17.40;;;5.50;99.90;;;;;;6229069;28;20776;-64
2022/04/02 03:38:17;;;;;;;20.77;17.60;;;5.50;99.90;;;;;;6229923;28;20467;-64
2022/04/02 03:41:23;;;;;;;19.70;17.07;;;5.50;99.90;;;;;;6230569;28;20468;-64
2022/04/02 03:44:26;;;;;;;17.77;16.00;;;5.40;99.90;;;;;;6228541;28;20487;-64
2022/04/02 03:47:29;;;;;;;20.10;18.00;;;5.50;99.90;;;;;;6228572;28;20476;-64
2022/04/02 03:50:32;;;;;;;20.50;18.27;;;5.50;99.90;;;;;;6228200;28;20947;-64
2022/04/02 03:53:36;;;;;;;19.07;17.07;;;5.50;99.90;;;;;;6228392;28;20494;-64
2022/04/02 03:56:40;;;;;;;21.37;19.07;;;5.50;99.90;;;;;;6227845;28;20470;-64
2022/04/02 03:59:44;;;;;;;21.60;18.80;;;5.60;99.90;;;;;;6228291;28;20471;-64
2022/04/02 04:02:48;;;;;;;19.27;17.03;;;5.50;99.90;;;;;;6228202;28;20502;-64
2022/04/02 04:05:51;;;;;;;19.13;17.13;;;5.50;99.90;;;;;;6228371;28;20931;-64
2022/04/02 04:08:56;;;;;;;21.17;17.73;;;5.50;99.90;;;;;;6228709;28;20541;-64
2022/04/02 04:12:01;;;;;;;20.37;17.60;;;5.40;99.90;;;;;;6229553;28;20984;-64
2022/04/02 04:15:05;;;;;;;20.37;18.03;;;5.40;99.90;;;;;;6230721;28;20498;-64
2022/04/02 04:18:08;;;;;;;21.20;18.33;;;5.40;99.90;;;;;;6231891;28;20503;-65
2022/04/02 04:21:14;;;;;;;24.67;18.40;;;5.30;99.90;;;;;;6230928;28;20563;-65
2022/04/02 04:24:17;;;;;;;21.60;18.27;;;5.30;99.90;;;;;;6229198;28;20947;-64
2022/04/02 04:27:22;;;;;;;22.40;18.40;;;5.20;99.90;;;;;;6229595;28;20474;-64
2022/04/02 04:30:25;;;;;;;20.97;18.70;;;5.20;99.90;;;;;;6228271;28;20479;-65
2022/04/02 04:33:28;;;;;;;22.03;19.10;;;5.20;99.90;;;;;;6228036;28;20476;-65
2022/04/02 04:36:31;;;;;;;22.67;18.33;;;5.20;99.90;;;;;;6228849;28;20517;-65
2022/04/02 04:39:34;;;;;;;23.10;19.80;;;5.20;99.90;;;;;;6229304;28;20475;-64
2022/04/02 04:42:39;;;;;;;22.37;19.03;;;5.10;99.90;;;;;;6229626;28;20480;-65
2022/04/02 04:45:42;;;;;;;23.77;20.40;;;4.90;99.90;;;;;;6228163;28;20470;-64
2022/04/02 04:48:46;;;;;;;21.90;18.80;;;4.80;99.90;;;;;;6227902;28;20482;-64
2022/04/02 04:51:49;;;;;;;20.20;18.00;;;4.70;99.90;;;;;;6227303;28;20466;-64
2022/04/02 04:54:52;;;;;;;23.10;19.50;;;4.40;99.90;;;;;;6227544;28;20549;-63
2022/04/02 04:57:57;;;;;;;24.53;20.33;;;4.50;99.90;;;;;;6227670;28;20484;-63
2022/04/02 05:01:00;;;;;;;22.63;18.40;;;4.50;99.90;;;;;;6227707;28;20486;-63
2022/04/02 05:04:05;;;;;;;21.90;17.73;;;4.30;99.90;;;;;;6227310;28;20522;-63
2022/04/02 05:07:09;;;;;;;20.87;18.53;;;4.40;99.90;;;;;;6226920;28;20468;-64
2022/04/02 05:10:12;;;;;;;23.07;19.73;;;4.50;99.90;;;;;;6225592;28;20493;-63
2022/04/02 05:13:17;;;;;;;22.03;17.80;;;4.50;99.90;;;;;;6227161;28;21010;-65
2022/04/02 05:16:20;;;;;;;21.67;17.80;;;4.40;99.90;;;;;;6233493;28;20501;-65
2022/04/02 05:19:24;;;;;;;22.97;19.70;;;4.50;99.90;;;;;;6227239;28;20557;-65
2022/04/02 05:22:27;;;;;;;21.07;18.07;;;4.50;99.90;;;;;;6226410;28;20487;-65
2022/04/02 05:25:30;;;;;;;21.20;18.97;;;4.50;99.90;;;;;;6226505;28;20474;-65
2022/04/02 05:28:35;;;;;;;24.10;19.20;;;4.60;99.90;;;;;;6226556;28;20965;-65
2022/04/02 05:31:38;;;;;;;22.87;19.30;;;4.60;99.90;;;;;;6226457;28;20470;-65
2022/04/02 05:34:41;;;;;;;25.13;20.30;;;4.60;99.90;;;;;;6226117;28;20471;-65
2022/04/02 05:37:46;;;;;;;26.53;21.17;;;4.60;99.90;;;;;;6226707;28;20483;-65
2022/04/02 05:40:49;;;;;;;29.67;19.37;;;4.70;99.90;;;;;;6226149;28;20482;-65
2022/04/02 05:43:53;;;;;;;23.07;19.90;;;4.70;99.90;;;;;;6225940;28;20996;-63
2022/04/02 05:46:56;;;;;;;25.13;20.03;;;4.80;99.90;;;;;;6225938;28;20906;-63
2022/04/02 05:50:19;;;;;;;22.47;19.23;;;4.80;99.90;;;;;;6226542;28;20468;-63
2022/04/02 05:53:39;;;;;;;24.30;19.37;;;5.00;99.90;;;;;;6225729;28;20967;-65
2022/04/02 05:56:42;;;;;;;21.33;18.87;;;4.90;99.90;;;;;;6226152;28;20478;-66
2022/04/02 05:59:47;;;;;;;26.40;20.80;;;4.90;99.90;;;;;;6225840;28;20838;-64
2022/04/02 06:02:50;;;;;;;21.93;19.47;;;5.10;99.90;;;;;;6225755;28;21032;-64
2022/04/02 06:05:53;;;;;;;24.70;19.87;;;4.90;99.90;;;;;;6225903;28;20784;-64
2022/04/02 06:08:56;;;;;;;24.20;20.73;;;5.00;99.90;;;;;;6225940;28;20846;-65
2022/04/02 06:12:01;;;;;;;22.17;18.70;;;5.00;99.90;;;;;;6225078;28;20483;-65
2022/04/02 06:15:09;;;;;;;21.37;18.63;;;5.10;99.90;;;;;;6225712;28;20563;-65
2022/04/02 06:18:17;;;;;;;21.80;18.60;;;5.00;99.90;;;;;;6225899;28;20467;-65
2022/04/02 06:21:21;;;;;;;20.27;18.00;;;5.10;99.90;;;;;;6225176;28;20483;-66
2022/04/02 06:24:24;;;;;;;21.30;18.10;;;5.10;99.90;;;;;;6225815;28;20498;-65
2022/04/02 06:27:27;;;;;;;22.50;19.87;;;5.20;99.90;;;;;;6225832;28;20479;-65
2022/04/02 06:30:31;;;;;;;20.00;16.03;;;5.30;99.90;;;;;;6225538;28;20477;-65
2022/04/02 06:33:35;;;;;;;20.40;17.63;;;5.40;99.90;;;;;;6225362;28;20484;-65
2022/04/02 06:36:38;;;;;;;20.23;18.03;;;5.40;99.90;;;;;;6225655;28;20482;-65
2022/04/02 06:39:41;;;;;;;18.17;16.23;;;5.50;99.90;;;;;;6226170;28;20494;-65
2022/04/02 06:42:45;;;;;;;18.70;15.43;;;5.40;99.90;;;;;;6225480;28;21023;-65
2022/04/02 06:45:49;;;;;;;23.20;17.57;;;5.50;99.90;;;;;;6224323;28;20475;-66
2022/04/02 06:48:52;;;;;;;18.50;16.50;;;5.50;99.90;;;;;;6225625;28;20495;-66
2022/04/02 06:51:55;;;;;;;18.40;16.40;;;5.60;99.90;;;;;;6225076;28;20482;-65
2022/04/02 06:54:59;;;;;;;19.37;16.60;;;5.60;99.90;;;;;;6225128;28;20808;-64
2022/04/02 06:58:02;;;;;;;20.60;16.30;;;5.70;99.90;;;;;;6225315;28;20471;-64
2022/04/02 07:01:07;;;;;;;21.50;18.30;;;5.80;99.90;;;;;;6225222;28;20486;-64
2022/04/02 07:04:10;;;;;;;17.47;15.57;;;5.80;99.90;;;;;;6215714;28;20917;-64
2022/04/02 07:07:13;;;;;;;21.27;16.07;;;5.60;99.90;;;;;;6224977;28;20486;-66
2022/04/02 07:10:17;;;;;;;17.83;16.07;;;5.60;99.90;;;;;;6225262;28;20485;-67
2022/04/02 07:13:20;;;;;;;17.77;15.87;;;5.80;99.90;;;;;;6224785;28;20984;-65
2022/04/02 07:16:24;;;;;;;20.57;16.93;;;5.80;99.90;;;;;;6224775;28;20479;-67
2022/04/02 07:19:31;;;;;;;19.33;17.03;;;5.90;99.90;;;;;;6225411;28;20475;-66
2022/04/02 07:22:36;;;;;;;15.77;13.70;;;5.80;99.90;;;;;;6225156;28;20481;-66
2022/04/02 07:25:40;;;;;;;19.20;16.47;;;5.80;99.90;;;;;;6225002;28;20499;-66
2022/04/02 07:28:45;;;;;;;17.00;15.30;;;5.70;99.90;;;;;;6224934;28;20470;-66
2022/04/02 07:31:49;;;;;;;18.40;15.70;;;5.60;99.90;;;;;;6225201;28;20483;-66
2022/04/02 07:34:57;;;;;;;16.90;14.53;;;5.70;99.90;;;;;;6229088;28;20498;-65
2022/04/02 07:38:04;;;;;;;15.80;14.20;;;5.60;99.90;;;;;;6228970;28;20486;-65
2022/04/02 07:41:20;;;;;;;18.20;16.30;;;5.40;99.90;;;;;;6229123;28;20453;-65
2022/04/02 07:44:32;;;;;;;17.30;15.40;;;5.50;99.90;;;;;;6228574;28;20494;-66
2022/04/02 07:47:38;;;;;;;16.60;14.83;;;5.50;99.90;;;;;;6228648;28;20971;-66
2022/04/02 07:50:45;;;;;;;18.23;15.80;;;5.60;99.90;;;;;;6229098;28;20468;-66
2022/04/02 07:53:50;;;;;;;15.70;14.00;;;5.60;99.90;;;;;;6228518;28;20503;-66
2022/04/02 07:56:58;;;;;;;18.13;15.63;;;5.70;99.90;;;;;;6228704;28;20478;-66
2022/04/02 08:00:03;;;;;;;15.30;13.60;;;5.90;99.90;;;;;;6228750;28;20476;-67
2022/04/02 08:03:09;;;;;;;15.90;13.60;;;6.00;99.90;;;;;;6228956;28;20959;-66
2022/04/02 08:06:14;;;;;;;16.67;14.40;;;5.90;99.90;;;;;;6224879;28;20609;-66
2022/04/02 08:09:18;;;;;;;16.50;14.03;;;5.90;99.90;;;;;;6228586;28;20486;-66
2022/04/02 08:12:23;;;;;;;15.10;13.00;;;5.70;99.90;;;;;;6230153;28;20479;-67
2022/04/02 08:15:26;;;;;;;18.13;14.00;;;5.70;99.90;;;;;;6238686;28;20479;-66
2022/04/02 08:18:31;;;;;;;16.10;14.33;;;5.70;99.90;;;;;;6237323;28;20472;-66
2022/04/02 08:21:35;;;;;;;16.57;14.63;;;5.70;99.90;;;;;;6233999;28;20475;-66
2022/04/02 08:24:38;;;;;;;16.47;13.90;;;5.80;99.90;;;;;;6230719;28;20475;-65
2022/04/02 08:27:51;;;;;;;17.10;13.90;;;6.00;99.90;;;;;;6229650;28;20483;-67
2022/04/02 08:31:04;;;;;;;17.47;15.30;;;6.10;99.90;;;;;;6238863;28;20478;-66
2022/04/02 08:34:17;;;;;;;15.83;12.80;;;6.00;99.90;;;;;;6239907;28;20531;-66
2022/04/02 08:37:28;;;;;;;16.40;14.53;;;5.90;99.90;;;;;;6234599;28;20479;-65
2022/04/02 08:41:07;;;;;;;16.83;13.50;;;5.80;99.90;;;;;;6228259;28;20482;-65
2022/04/02 08:44:42;;;;;;;15.00;12.93;;;5.70;99.90;;;;;;6197673;28;20497;-64
2022/04/02 08:48:26;;;;;;;13.87;12.43;;;5.80;99.90;;;;;;6227630;28;20479;-64
2022/04/02 08:51:42;;;;;;;15.40;13.90;;;6.00;99.90;;;;;;6198349;28;20884;-65
2022/04/02 08:54:57;;;;;;;15.17;12.77;;;6.10;99.90;;;;;;6178891;28;20968;-66
2022/04/02 08:58:38;;;;;;;15.40;13.80;;;6.10;99.90;;;;;;6178764;28;20478;-64
2022/04/02 09:01:44;;;;;;;15.33;13.37;;;5.90;99.90;;;;;;6178194;28;20495;-64
2022/04/02 09:05:06;;;;;;;14.97;12.20;;;5.90;99.90;;;;;;6178830;28;20486;-65
2022/04/02 09:09:03;;;;;;;15.83;14.13;;;6.00;99.90;;;;;;6178539;28;20458;-65
2022/04/02 09:12:34;;;;;;;14.77;13.07;;;6.10;99.90;;;;;;6124818;28;20487;-65
2022/04/02 09:15:50;;;;;;;16.43;14.83;;;6.20;99.90;;;;;;6139083;28;20984;-66
2022/04/02 09:19:12;;;;;;;14.53;13.03;;;6.20;99.90;;;;;;6178347;28;20474;-65
2022/04/02 09:22:45;;;;;;;13.40;11.80;;;6.10;99.90;;;;;;6177988;28;20478;-63
2022/04/02 09:26:20;;;;;;;17.67;14.13;;;6.10;99.90;;;;;;6179051;28;20473;-62
2022/04/02 09:29:28;;;;;;;14.87;13.10;;;6.10;99.90;;;;;;6177929;28;20956;-64
2022/04/02 09:33:10;;;;;;;15.37;13.57;;;6.10;99.90;;;;;;6178167;28;20481;-67
2022/04/02 09:36:31;;;;;;;16.80;15.00;;;6.00;99.90;;;;;;6171901;28;20523;-63
2022/04/02 09:39:55;;;;;;;14.40;13.00;;;6.00;99.90;;;;;;6178235;28;20474;-66
2022/04/02 09:43:06;;;;;;;16.70;13.30;;;6.00;99.90;;;;;;6177171;28;20973;-66
2022/04/02 09:46:26;;;;;;;15.10;13.50;;;5.80;99.90;;;;;;6186871;28;20474;-67
2022/04/02 09:49:36;;;;;;;15.90;12.83;;;5.80;99.90;;;;;;6195947;28;20553;-68
2022/04/02 09:52:44;;;;;;;15.87;12.87;;;5.70;99.90;;;;;;6207519;28;20476;-67
2022/04/02 09:55:57;;;;;;;14.10;12.70;;;5.60;99.90;;;;;;6225868;28;20499;-67
2022/04/02 09:59:06;;;;;;;16.30;14.00;;;5.60;99.90;;;;;;6226850;28;20888;-67
2022/04/02 10:02:23;;;;;;;15.73;14.13;;;5.60;99.90;;;;;;6243200;28;20780;-67
2022/04/02 10:05:44;;;;;;;17.23;13.40;;;5.60;99.90;;;;;;6250520;28;20481;-67
2022/04/02 10:09:04;;;;;;;23.00;19.93;;;5.50;99.90;;;;;;6255117;28;20488;-67
2022/04/02 10:12:11;;;;;;;15.07;13.50;;;5.60;99.90;;;;;;6251128;28;20489;-67
2022/04/02 10:15:20;;;;;;;18.00;16.10;;;5.50;99.90;;;;;;6250555;28;20484;-68
2022/04/02 10:18:25;;;;;;;20.27;16.50;;;5.70;99.90;;;;;;6246224;28;20471;-68
2022/04/02 10:21:29;;;;;;;28.23;19.63;;;5.70;99.90;;;;;;6249846;28;20482;-67
2022/04/02 10:24:37;;;;;;;22.07;16.80;;;5.80;99.90;;;;;;6250105;28;20475;-67
2022/04/02 10:27:41;;;;;;;16.53;14.80;;;5.90;99.90;;;;;;6246843;28;21009;-68
2022/04/02 10:30:54;;;;;;;15.37;13.77;;;5.90;99.90;;;;;;6249593;28;20480;-68
2022/04/02 10:34:06;;;;;;;16.33;14.67;;;5.90;99.90;;;;;;6249695;28;20545;-67
2022/04/02 10:37:12;;;;;;;15.80;13.80;;;5.90;99.90;;;;;;6250472;28;20955;-68
2022/04/02 10:40:19;;;;;;;16.87;15.07;;;5.90;99.90;;;;;;6247132;28;20532;-67
2022/04/02 10:43:26;;;;;;;13.70;12.10;;;5.90;99.90;;;;;;6249740;28;20481;-66
2022/04/02 10:46:33;;;;;;;13.73;12.33;;;5.90;99.90;;;;;;6248142;28;20469;-67
2022/04/02 10:49:40;;;;;;;15.33;13.73;;;6.00;99.90;;;;;;6249884;28;20466;-67
2022/04/02 10:52:47;;;;;;;15.30;13.57;;;6.00;99.90;;;;;;6246379;28;20471;-67
2022/04/02 10:55:59;;;;;;;16.53;14.20;;;6.00;99.90;;;;;;6249933;28;20471;-67
2022/04/02 10:59:02;;;;;;;15.77;14.17;;;6.00;99.90;;;;;;6247995;28;20466;-67
2022/04/02 11:02:22;;;;;;;16.53;14.73;;;6.00;99.90;;;;;;6250408;28;20468;-67
2022/04/02 11:05:29;;;;;;;18.50;15.20;;;5.80;99.90;;;;;;6249656;28;20489;-66
2022/04/02 11:08:32;;;;;;;14.70;13.20;;;5.70;99.90;;;;;;6254254;28;20474;-67
2022/04/02 11:11:38;;;;;;;17.20;14.77;;;5.80;99.90;;;;;;6254970;28;20471;-67
2022/04/02 11:14:43;;;;;;;19.90;15.10;;;5.80;99.90;;;;;;6255063;28;20895;-67
2022/04/02 11:17:49;;;;;;;17.17;14.43;;;5.90;99.90;;;;;;6250788;28;20507;-67
2022/04/02 11:21:01;;;;;;;16.60;14.60;;;6.00;99.90;;;;;;6257930;28;20470;-67
2022/04/02 11:24:11;;;;;;;14.97;12.83;;;6.20;99.90;;;;;;6254415;28;20479;-67
2022/04/02 11:27:18;;;;;;;13.83;12.43;;;6.30;99.90;;;;;;6254475;28;20770;-67
2022/04/02 11:30:22;;;;;;;14.83;13.23;;;6.10;99.90;;;;;;6254419;28;20505;-67
2022/04/02 11:33:27;;;;;;;14.20;12.80;;;6.20;99.90;;;;;;6254556;28;20496;-67
2022/04/02 11:36:41;;;;;;;16.17;14.07;;;6.50;99.90;;;;;;6254313;28;20475;-68
2022/04/02 11:39:49;;;;;;;17.20;14.97;;;6.70;99.90;;;;;;6254062;28;20488;-67
2022/04/02 11:42:52;;;;;;;15.47;13.10;;;6.70;99.90;;;;;;6254054;28;20490;-67
2022/04/02 11:46:00;;;;;;;16.10;12.93;;;6.80;99.90;;;;;;6264106;28;20462;-68
2022/04/02 11:49:11;;;;;;;14.33;12.87;;;6.90;99.90;;;;;;6278746;28;20489;-67
2022/04/02 11:52:15;;;;;;;12.23;10.93;;;7.30;99.90;;;;;;6269737;28;20479;-68
2022/04/02 11:55:19;;;;;;;14.50;12.30;;;7.40;99.90;;;;;;6253787;28;20524;-67
2022/04/02 11:58:22;;;;;;;13.87;12.47;;;7.30;99.90;;;;;;6254272;28;20486;-66
2022/04/02 12:01:25;;;;;;;13.33;12.00;;;7.00;99.90;;;;;;6253974;28;20478;-66
2022/04/02 12:04:30;;;;;;;14.67;13.27;;;7.00;99.90;;;;;;6254437;28;20494;-67
2022/04/02 12:07:42;;;;;;;12.10;10.90;;;7.20;99.90;;;;;;6254839;28;20475;-67
2022/04/02 12:11:10;;;;;;;12.47;11.27;;;7.00;99.90;;;;;;6252967;28;20513;-67
2022/04/02 12:14:27;;;;;;;13.13;11.80;;;6.80;99.90;;;;;;6253296;28;20455;-68
2022/04/02 12:17:34;;;;;;;11.80;10.70;;;6.80;99.90;;;;;;6254781;28;20808;-67
2022/04/02 12:20:40;;;;;;;12.50;11.23;;;7.20;99.90;;;;;;6248855;28;20482;-68
2022/04/02 12:23:56;;;;;;;12.47;11.23;;;7.20;99.90;;;;;;6253833;28;20812;-67
2022/04/02 12:27:06;;;;;;;12.37;11.17;;;7.20;99.90;;;;;;6253354;28;20482;-68
2022/04/02 12:30:11;;;;;;;14.07;12.40;;;7.10;99.90;;;;;;6252973;28;20478;-66
2022/04/02 12:33:17;;;;;;;11.47;10.37;;;7.10;99.90;;;;;;6253045;28;20471;-68
2022/04/02 12:36:30;;;;;;;12.27;11.07;;;7.00;99.90;;;;;;6253230;28;20517;-68
2022/04/02 12:39:33;;;;;;;13.10;11.80;;;7.00;99.90;;;;;;6252997;28;20973;-69
2022/04/02 12:42:40;;;;;;;12.40;11.10;;;7.10;99.90;;;;;;6252359;28;20475;-68
2022/04/02 12:45:43;;;;;;;12.87;11.70;;;7.10;99.90;;;;;;6252342;28;20472;-67
2022/04/02 12:48:47;;;;;;;12.30;11.13;;;7.20;99.90;;;;;;6252207;28;20495;-66
2022/04/02 12:52:10;;;;;;;11.53;10.00;;;7.40;99.90;;;;;;6246696;28;20795;-67
2022/04/02 12:55:23;;;;;;;14.07;12.77;;;7.50;99.90;;;;;;6227721;28;20468;-67
2022/04/02 12:58:34;;;;;;;12.23;11.00;;;7.60;99.90;;;;;;6227571;28;20787;-69
2022/04/02 13:01:38;;;;;;;11.43;10.50;;;7.70;99.90;;;;;;6227304;28;20476;-68
2022/04/02 13:04:50;;;;;;;13.13;11.83;;;7.70;99.90;;;;;;6228237;28;20565;-68
2022/04/02 13:08:04;;;;;;;10.87;9.87;;;7.70;99.90;;;;;;6231058;28;20472;-67
2022/04/02 13:11:12;;;;;;;12.80;11.50;;;7.60;99.90;;;;;;6235481;28;20454;-69
2022/04/02 13:14:17;;;;;;;10.80;9.80;;;7.60;99.90;;;;;;6233311;28;20459;-69
2022/04/02 13:17:20;;;;;;;11.23;10.23;;;7.60;99.90;;;;;;6229789;28;20464;-68
2022/04/02 13:20:30;;;;;;;9.20;8.30;;;7.70;99.90;;;;;;6228905;28;20464;-69
2022/04/02 13:24:04;;;;;;;9.97;9.07;;;7.70;99.90;;;;;;6217551;28;20472;-64
2022/04/02 13:27:38;;;;;;;10.50;9.50;;;8.00;99.90;;;;;;6220305;28;20785;-65
2022/04/02 13:30:42;;;;;;;10.00;9.00;;;8.10;99.90;;;;;;6226793;28;20464;-64
2022/04/02 13:34:11;;;;;;;10.83;9.80;;;8.10;99.90;;;;;;6226624;28;20483;-67
2022/04/02 13:37:26;;;;;;;12.80;9.93;;;8.10;99.90;;;;;;6227366;28;20543;-67
2022/04/02 13:40:37;;;;;;;11.07;10.07;;;8.10;99.80;;;;;;6226523;28;20595;-62
2022/04/02 13:43:49;;;;;;;10.40;9.30;;;8.10;99.80;;;;;;6226359;28;20488;-63
2022/04/02 13:46:54;;;;;;;11.30;10.30;;;8.00;99.70;;;;;;6244698;28;20491;-64
2022/04/02 13:49:59;;;;;;;11.83;10.73;;;8.00;99.90;;;;;;6250536;28;20486;-63
2022/04/02 13:53:06;;;;;;;9.83;8.83;;;8.00;99.90;;;;;;6251003;28;20819;-65
2022/04/02 13:56:13;;;;;;;11.57;10.53;;;8.00;99.90;;;;;;6256364;28;20873;-64
2022/04/02 13:59:22;;;;;;;10.30;9.40;;;8.20;99.90;;;;;;6262034;28;20423;-64
2022/04/02 14:02:27;;;;;;;10.37;8.30;;;8.30;99.90;;;;;;6260147;28;20785;-64
2022/04/02 14:05:37;;;;;;;9.80;8.80;;;8.30;99.80;;;;;;6254179;28;20482;-64
2022/04/02 14:08:40;;;;;;;9.90;9.10;;;8.40;99.70;;;;;;6254725;28;20486;-64
2022/04/02 14:11:55;;;;;;;10.03;9.13;;;8.40;99.20;;;;;;6257541;28;20467;-65
2022/04/02 14:15:07;;;;;;;10.77;9.70;;;8.20;99.40;;;;;;6253512;28;20479;-63
2022/04/02 14:18:11;;;;;;;11.07;9.97;;;8.20;99.90;;;;;;6235427;28;20486;-61
2022/04/02 14:21:19;;;;;;;10.57;9.47;;;8.20;99.90;;;;;;6240329;28;20482;-64
2022/04/02 14:24:27;;;;;;;11.10;10.10;;;8.10;99.70;;;;;;6228779;28;20476;-64
2022/04/02 14:28:08;;;;;;;11.60;10.57;;;7.80;99.90;;;;;;6238499;28;20939;-61
2022/04/02 14:31:56;;;;;;;11.37;10.17;;;7.80;99.90;;;;;;6248178;28;20456;-66
2022/04/02 14:35:39;;;;;;;9.63;8.73;;;7.90;99.90;;;;;;6246293;28;20444;-66
2022/04/02 14:39:24;;;;;;;11.93;10.37;;;7.90;99.90;;;;;;6248342;28;20470;-65
2022/04/02 14:43:08;;;;;;;12.83;11.43;;;7.80;99.90;;;;;;6252140;28;20491;-66
2022/04/02 14:46:42;;;;;;;24.63;15.30;;;7.70;99.90;;;;;;6252856;28;20499;-66
2022/04/02 14:50:28;;;;;;;10.77;9.67;;;7.70;99.90;;;;;;6220772;28;21009;-61
2022/04/02 14:54:07;;;;;;;11.93;10.67;;;7.60;99.90;;;;;;6247965;28;20550;-62
2022/04/02 14:57:48;;;;;;;11.20;9.20;;;7.60;99.90;;;;;;6255014;28;20463;-64
2022/04/02 15:01:18;;;;;;;10.90;9.90;;;7.60;99.90;;;;;;6205263;28;20468;-66
2022/04/02 15:04:55;;;;;;;17.60;13.80;;;7.70;99.90;;;;;;6254555;28;20466;-66
2022/04/02 15:08:35;;;;;;;18.23;16.33;;;7.70;99.90;;;;;;6254206;28;20478;-66
2022/04/02 15:11:49;;;;;;;13.57;12.27;;;7.60;99.90;;;;;;6253834;28;20478;-67
2022/04/02 15:14:58;;;;;;;12.87;11.57;;;7.60;99.90;;;;;;6254940;28;20486;-67
2022/04/02 15:18:04;;;;;;;13.40;10.57;;;7.60;99.90;;;;;;6254371;28;20478;-66
2022/04/02 15:21:12;;;;;;;12.53;11.33;;;7.60;99.90;;;;;;6254104;28;20522;-66
2022/04/02 15:24:17;;;;;;;11.67;10.57;;;7.60;99.90;;;;;;6251117;28;20476;-66
2022/04/02 15:27:48;;;;;;;14.30;11.40;;;7.60;99.90;;;;;;6229148;28;21059;-66
2022/04/02 15:30:55;;;;;;;11.20;10.17;;;7.60;99.90;;;;;;6224970;28;20472;-66
2022/04/02 15:33:58;;;;;;;10.00;9.13;;;7.60;99.90;;;;;;6229212;28;20483;-66
2022/04/02 15:37:04;;;;;;;11.30;10.07;;;7.60;99.90;;;;;;6229147;28;20483;-67
2022/04/02 15:40:10;;;;;;;12.40;11.10;;;7.50;99.90;;;;;;6239845;28;20472;-69
2022/04/02 15:43:21;;;;;;;10.70;9.70;;;7.50;99.90;;;;;;6240543;28;20475;-66
2022/04/02 15:46:32;;;;;;;10.73;9.70;;;7.40;99.90;;;;;;6250780;28;20967;-65
2022/04/02 15:50:06;;;;;;;10.90;9.50;;;7.40;99.90;;;;;;6228097;28;20577;-65
2022/04/02 15:53:22;;;;;;;10.60;9.50;;;7.30;99.90;;;;;;6251074;28;20479;-65
2022/04/02 15:57:16;;;;;;;10.70;9.60;;;7.20;99.90;;;;;;6239062;28;20917;-65
2022/04/02 16:00:25;;;;;;;12.77;11.50;;;7.00;99.90;;;;;;6178863;28;20768;-66
2022/04/02 16:03:44;;;;;;;12.73;11.43;;;6.70;99.90;;;;;;6229411;28;20468;-66
2022/04/02 16:06:48;;;;;;;11.93;10.83;;;6.40;99.90;;;;;;6229120;28;20492;-66
2022/04/02 16:10:10;;;;;;;11.57;10.50;;;6.30;99.90;;;;;;6229187;28;20476;-66
2022/04/02 16:13:25;;;;;;;10.63;9.63;;;6.30;99.90;;;;;;6229679;28;20483;-66
2022/04/02 16:16:28;;;;;;;10.97;9.47;;;6.30;99.90;;;;;;6230982;28;20526;-66